Time;durP1;ratioP1;P1;durP2;ratioP2;P2;SDS_P1;SDS_P2;PMS_P1;PMS_P2;Temp;Humidity;BMP_temperature;BMP_pressure;BME280_temperature;BME280_humidity;BME280_pressure;Samples;Min_cycle;Max_cycle;Signal;HPM_P1;HPM_P2
2022/12/15 00:39:11;;;;;;;61.97;25.17;;;;;;;-6.66;100.00;145770.63;5021728;28;20692;-67
2022/12/15 00:41:36;;;;;;;64.27;25.67;;;;;;;-6.65;100.00;145774.47;5012000;28;20272;-67
2022/12/15 00:44:02;;;;;;;66.23;26.10;;;;;;;-6.57;100.00;145793.56;5019159;28;20030;-67
2022/12/15 01:21:59;;;;;;;47.23;20.33;;;;;;;-6.04;100.00;145927.50;5018521;28;20355;-66
2022/12/15 01:24:25;;;;;;;46.27;20.50;;;;;;;-6.07;100.00;145919.81;5018354;28;20324;-66
2022/12/15 01:26:50;;;;;;;52.90;20.30;;;;;;;-6.14;100.00;145901.97;5020723;28;20381;-66
2022/12/15 01:29:16;;;;;;;47.07;18.03;;;;;;;-6.17;100.00;145894.34;5012766;28;20037;-67
2022/12/15 01:31:42;;;;;;;41.20;18.70;;;;;;;-6.19;100.00;145889.19;5012329;28;20076;-66
2022/12/15 01:34:08;;;;;;;42.77;19.63;;;;;;;-6.14;100.00;145901.97;5017418;28;20147;-67
2022/12/15 01:36:33;;;;;;;42.77;19.47;;;;;;;-5.95;100.00;145949.13;5011351;28;20340;-67
2022/12/15 01:39:00;;;;;;;43.27;18.93;;;;;;;-5.97;100.00;145945.31;5021457;28;20052;-67
2022/12/15 01:41:25;;;;;;;44.37;19.50;;;;;;;-6.23;100.00;145879.00;5014665;28;20044;-67
2022/12/15 01:43:51;;;;;;;42.57;18.70;;;;;;;-6.45;100.00;145822.91;5011517;28;20677;-66
2022/12/15 01:46:19;;;;;;;46.37;18.80;;;;;;;-6.56;100.00;145797.38;5019390;28;20778;-67
2022/12/15 01:48:50;;;;;;;42.47;17.53;;;;;;;-6.19;100.00;145889.19;5026223;28;20030;-66
2022/12/15 01:51:33;;;;;;;45.67;20.05;;;;;;;-6.02;100.00;145932.59;5014521;28;20281;-66
2022/12/15 01:53:58;;;;;;;41.07;19.37;;;;;;;-6.10;100.00;145912.16;5012123;28;20481;-66
2022/12/15 01:56:26;;;;;;;41.20;17.40;;;;;;;-6.20;100.00;145887.91;5013665;28;20288;-66
2022/12/15 01:58:56;;;;;;;42.20;17.50;;;;;;;-6.17;100.00;145894.34;5011148;28;20133;-66
2022/12/15 02:01:22;;;;;;;34.10;15.20;;;;;;;-6.33;100.00;145853.50;5022616;28;22287;-66
2022/12/15 02:03:47;;;;;;;38.97;18.10;;;;;;;-6.29;100.00;145863.72;5018302;28;20044;-66
2022/12/15 02:06:14;;;;;;;41.57;18.07;;;;;;;-6.42;100.00;145831.84;5022019;28;20049;-65
2022/12/15 02:08:42;;;;;;;43.17;19.23;;;;;;;-6.19;100.00;145889.19;5018411;28;20033;-66
2022/12/15 02:11:23;;;;;;;41.93;18.50;;;;;;;-6.09;100.00;145914.72;5014254;28;22002;-65
2022/12/15 02:14:02;;;;;;;44.60;18.50;;;;;;;-6.03;100.00;145930.03;5022257;28;20779;-66
2022/12/15 02:16:34;;;;;;;40.03;18.23;;;;;;;-5.96;100.00;145947.88;5021654;28;20451;-66
2022/12/15 02:19:38;;;;;;;37.13;17.35;;;;;;;-6.12;100.00;145905.78;5013128;28;20291;-65
2022/12/15 02:22:24;;;;;;;36.03;15.87;;;;;;;-6.12;100.00;145905.78;5006067;28;20164;-66
2022/12/15 02:25:22;;;;;;;37.13;15.80;;;;;;;-6.01;100.00;145935.13;5021614;28;20287;-65
2022/12/15 02:27:53;;;;;;;38.70;17.30;;;;;;;-5.99;100.00;145940.22;5020882;28;20641;-65
2022/12/15 02:30:33;;;;;;;39.05;18.15;;;;;;;-6.08;100.00;145917.25;5022038;28;20752;-65
2022/12/15 02:33:08;;;;;;;38.33;17.07;;;;;;;-6.07;100.00;145919.81;5021757;28;20554;-65
2022/12/15 02:36:11;;;;;;;36.97;16.50;;;;;;;-6.04;100.00;145927.50;5016129;28;20276;-65
2022/12/15 02:38:40;;;;;;;36.97;16.97;;;;;;;-5.99;100.00;145938.94;5019679;28;20281;-65
2022/12/15 02:41:32;;;;;;;36.30;17.87;;;;;;;-5.96;100.00;145947.88;5017876;28;20308;-65
2022/12/15 02:43:58;;;;;;;35.55;16.73;;;;;;;-6.08;100.00;145917.25;5014550;28;20999;-65
2022/12/15 02:46:40;;;;;;;36.50;16.67;;;;;;;-6.25;100.00;145875.19;5019342;28;20414;-66
2022/12/15 02:49:32;;;;;;;38.03;17.77;;;;;;;-6.30;100.00;145861.13;5018324;28;20276;-65
2022/12/15 02:52:06;;;;;;;32.80;14.88;;;;;;;-6.16;100.00;145896.88;5016961;28;20303;-65
2022/12/15 02:55:01;;;;;;;40.60;17.57;;;;;;;-6.22;100.00;145882.81;5016862;28;20036;-65
2022/12/15 02:58:08;;;;;;;36.70;15.23;;;;;;;-6.13;100.00;145904.53;5016630;28;20272;-65
2022/12/15 03:00:40;;;;;;;41.23;17.60;;;;;;;-6.25;100.00;145875.19;4956355;28;20332;-65
2022/12/15 03:03:06;;;;;;;33.77;14.97;;;;;;;-6.17;100.00;145894.34;4958685;28;20295;-65
2022/12/15 03:05:31;;;;;;;40.47;17.83;;;;;;;-6.25;100.00;145873.91;4958678;28;20290;-65
2022/12/15 03:07:57;;;;;;;40.67;17.67;;;;;;;-6.28;100.00;145866.28;4956499;28;20392;-65
2022/12/15 03:10:24;;;;;;;39.63;16.70;;;;;;;-6.18;100.00;145890.47;4969280;28;20031;-65
2022/12/15 03:12:50;;;;;;;39.10;17.43;;;;;;;-6.08;100.00;145917.25;4961481;28;20508;-65
2022/12/15 03:15:16;;;;;;;35.20;17.27;;;;;;;-6.01;100.00;145933.84;4966189;28;20293;-65
2022/12/15 03:17:42;;;;;;;42.27;17.07;;;;;;;-6.13;100.00;145904.53;4970277;28;20378;-65
2022/12/15 03:20:08;;;;;;;39.80;17.43;;;;;;;-6.10;100.00;145912.16;4960409;28;20297;-65
2022/12/15 03:22:34;;;;;;;36.47;16.60;;;;;;;-6.27;100.00;145868.81;4960458;28;20038;-65
2022/12/15 03:24:59;;;;;;;36.10;16.83;;;;;;;-6.40;100.00;145835.66;4959106;28;20652;-65
2022/12/15 03:27:25;;;;;;;42.73;16.90;;;;;;;-6.13;100.00;145904.53;4952595;28;20367;-65
2022/12/15 03:29:50;;;;;;;34.63;16.93;;;;;;;-6.06;100.00;145922.34;4953328;28;20027;-65
2022/12/15 03:32:16;;;;;;;36.20;16.83;;;;;;;-6.16;100.00;145896.88;5014725;28;20042;-65
2022/12/15 03:34:41;;;;;;;36.57;17.07;;;;;;;-6.16;100.00;145896.88;5016791;28;20478;-64
2022/12/15 03:37:07;;;;;;;37.67;17.30;;;;;;;-6.39;100.00;145839.50;5015967;28;20498;-65
2022/12/15 03:39:32;;;;;;;39.87;18.00;;;;;;;-6.50;100.00;145811.44;5012919;28;20053;-64
2022/12/15 03:41:58;;;;;;;39.73;17.17;;;;;;;-6.42;100.00;145830.53;5018732;28;20032;-60
2022/12/15 03:44:23;;;;;;;42.43;16.83;;;;;;;-6.35;100.00;145849.69;5016028;28;20034;-60
2022/12/15 03:46:49;;;;;;;40.77;19.00;;;;;;;-6.35;100.00;145848.41;5016874;28;20030;-62
2022/12/15 03:49:34;;;;;;;40.50;18.30;;;;;;;-6.43;100.00;145828.00;5014373;28;20033;-62
2022/12/15 03:51:59;;;;;;;38.53;18.27;;;;;;;-6.51;100.00;145810.16;5025172;28;20037;-65
2022/12/15 03:54:24;;;;;;;34.47;15.77;;;;;;;-6.46;100.00;145821.63;5013477;28;20737;-65
2022/12/15 03:56:50;;;;;;;35.53;15.80;;;;;;;-6.40;100.00;145835.66;5022262;28;20091;-65
2022/12/15 03:59:15;;;;;;;41.47;19.43;;;;;;;-6.27;100.00;145868.81;5020706;28;20061;-65
2022/12/15 04:01:46;;;;;;;47.00;18.43;;;;;;;-6.51;100.00;145810.16;5019238;28;20037;-65
2022/12/15 04:04:12;;;;;;;43.45;18.73;;;;;;;-6.39;100.00;145838.22;5015653;28;20033;-65
2022/12/15 04:06:37;;;;;;;39.43;18.33;;;;;;;-6.38;100.00;145840.75;5015753;28;20087;-65
2022/12/15 04:09:02;;;;;;;38.73;17.90;;;;;;;-6.46;100.00;145820.34;5018509;28;20021;-65
2022/12/15 04:11:28;;;;;;;42.80;18.90;;;;;;;-6.38;100.00;145840.75;5022156;28;20461;-65
2022/12/15 04:13:53;;;;;;;37.90;18.40;;;;;;;-6.35;100.00;145848.41;5015901;28;20076;-65
2022/12/15 04:16:19;;;;;;;37.87;17.70;;;;;;;-6.38;100.00;145840.75;5026609;28;20079;-65
2022/12/15 04:18:44;;;;;;;43.43;17.70;;;;;;;-6.51;100.00;145810.16;5022169;28;20052;-65
2022/12/15 04:21:09;;;;;;;38.43;17.57;;;;;;;-6.44;100.00;145826.72;5017190;28;20207;-65
2022/12/15 04:23:35;;;;;;;37.67;18.37;;;;;;;-6.38;100.00;145840.75;5022764;28;20030;-65
2022/12/15 05:32:01;;;;;;;40.67;19.40;;;;;;;-6.28;100.00;145867.56;5019252;28;20274;-66
2022/12/15 05:34:29;;;;;;;42.50;19.57;;;;;;;-6.19;100.00;145889.19;5014123;28;20285;-66
2022/12/15 05:36:56;;;;;;;45.70;19.70;;;;;;;-6.15;100.00;145899.44;5016134;28;20022;-65
2022/12/15 05:39:22;;;;;;;52.27;20.17;;;;;;;-6.13;100.00;145904.53;5021833;28;20261;-65
2022/12/15 05:41:49;;;;;;;47.70;19.77;;;;;;;-6.20;100.00;145886.66;5016994;28;20358;-66
2022/12/15 05:44:14;;;;;;;44.50;20.73;;;;;;;-6.28;100.00;145867.56;5019841;28;20629;-66
2022/12/15 05:46:40;;;;;;;52.03;21.33;;;;;;;-6.35;100.00;145848.41;5015302;28;20284;-66
2022/12/15 05:49:07;;;;;;;45.93;20.63;;;;;;;-6.28;100.00;145866.28;5016899;28;20029;-66
2022/12/15 05:51:36;;;;;;;47.23;19.57;;;;;;;-6.20;100.00;145887.91;5012956;28;20105;-66
2022/12/15 05:54:01;;;;;;;39.37;18.57;;;;;;;-6.14;100.00;145901.97;5013429;28;20296;-66
2022/12/15 05:56:27;;;;;;;41.23;18.87;;;;;;;-6.17;100.00;145893.06;5023024;28;20310;-67
2022/12/15 05:58:52;;;;;;;46.20;19.70;;;;;;;-6.19;100.00;145889.19;5016472;28;20385;-66
2022/12/15 06:01:18;;;;;;;46.43;18.90;;;;;;;-6.17;100.00;145894.34;5017376;28;20026;-66
2022/12/15 06:03:44;;;;;;;43.40;20.53;;;;;;;-6.19;100.00;145889.19;5020634;28;20468;-66
2022/12/15 06:06:11;;;;;;;46.50;19.43;;;;;;;-6.11;100.00;145908.34;5024525;28;20060;-66
2022/12/15 06:08:39;;;;;;;50.03;22.03;;;;;;;-6.10;100.00;145912.16;5018110;28;20276;-66
2022/12/15 06:11:05;;;;;;;52.30;21.53;;;;;;;-6.07;100.00;145919.81;5022088;28;20782;-66
2022/12/15 06:13:33;;;;;;;45.63;20.23;;;;;;;-6.04;100.00;145927.50;5016046;28;20284;-66
2022/12/15 06:16:16;;;;;;;45.23;18.77;;;;;;;-5.90;100.00;145963.16;5027531;28;20268;-66
2022/12/15 06:18:44;;;;;;;44.93;19.47;;;;;;;-5.84;100.00;145977.16;5018111;28;20278;-66
2022/12/15 06:21:14;;;;;;;41.60;18.77;;;;;;;-5.87;100.00;145968.25;5019238;28;20776;-66
2022/12/15 06:23:40;;;;;;;47.47;19.17;;;;;;;-5.94;100.00;145952.97;5029646;28;20668;-66
2022/12/15 06:26:10;;;;;;;50.37;20.90;;;;;;;-5.82;100.00;145980.97;5024382;28;20799;-66
2022/12/15 06:28:36;;;;;;;42.73;19.03;;;;;;;-5.71;100.00;146010.31;5020641;28;20462;-66
2022/12/15 06:31:04;;;;;;;38.17;18.13;;;;;;;-5.78;100.00;145992.50;5023790;28;20601;-66
2022/12/15 06:33:29;;;;;;;44.53;20.67;;;;;;;-5.81;100.00;145983.56;5014496;28;20112;-66
2022/12/15 06:35:55;;;;;;;41.27;19.03;;;;;;;-5.80;100.00;145986.13;5020803;28;20410;-66
2022/12/15 06:38:21;;;;;;;48.73;21.40;;;;;;;-5.78;100.00;145992.50;5023578;28;20075;-66
2022/12/15 06:40:59;;;;;;;46.17;19.83;;;;;;;-5.75;100.00;145998.84;5027534;28;20029;-66
2022/12/15 06:43:26;;;;;;;30.37;14.30;;;;;;;-5.48;100.00;146067.75;5020547;28;20029;-66
2022/12/15 06:45:52;;;;;;;36.73;17.17;;;;;;;-5.43;100.00;146080.53;5023544;28;20265;-66
2022/12/15 06:48:19;;;;;;;41.87;18.43;;;;;;;-5.38;100.00;146092.00;5025162;28;20280;-66
2022/12/15 06:50:44;;;;;;;41.27;18.00;;;;;;;-5.43;100.00;146079.25;5020744;28;20101;-66
2022/12/15 06:53:16;;;;;;;40.27;19.07;;;;;;;-5.46;100.00;146072.84;5033018;28;20664;-66
2022/12/15 06:55:42;;;;;;;46.25;20.35;;;;;;;-5.46;100.00;146072.84;5030000;28;20054;-66
2022/12/15 06:58:08;;;;;;;39.53;17.37;;;;;;;-5.56;100.00;146046.09;5021273;28;20037;-66
2022/12/15 07:00:37;;;;;;;41.93;19.33;;;;;;;-5.68;100.00;146016.75;5023711;28;20275;-66
2022/12/15 07:03:05;;;;;;;37.80;18.13;;;;;;;-5.68;100.00;146016.75;5025104;28;20029;-66
2022/12/15 07:05:30;;;;;;;48.10;18.77;;;;;;;-5.72;100.00;146006.50;5026620;28;20814;-66
2022/12/15 07:07:56;;;;;;;44.57;19.37;;;;;;;-5.68;100.00;146016.75;5023559;28;20288;-67
2022/12/15 07:10:21;;;;;;;42.27;19.47;;;;;;;-5.68;100.00;146016.75;5036744;28;20061;-66
2022/12/15 07:12:46;;;;;;;47.80;19.90;;;;;;;-5.75;100.00;145998.84;5028483;28;20025;-66
2022/12/15 07:15:12;;;;;;;38.23;18.73;;;;;;;-5.84;100.00;145975.88;5023936;28;20065;-66
2022/12/15 07:17:37;;;;;;;39.17;18.63;;;;;;;-5.77;100.00;145993.75;5021794;28;20548;-66
2022/12/15 07:20:06;;;;;;;42.37;19.03;;;;;;;-5.77;100.00;145993.75;5025832;28;20025;-66
2022/12/15 07:22:32;;;;;;;39.17;18.43;;;;;;;-5.71;100.00;146009.03;5029100;28;20028;-66
2022/12/15 07:24:58;;;;;;;46.13;19.53;;;;;;;-5.59;100.00;146039.66;5031730;28;20268;-67
2022/12/15 07:27:24;;;;;;;40.33;17.17;;;;;;;-5.54;100.00;146052.47;5022466;28;20291;-66
2022/12/15 07:29:49;;;;;;;42.87;19.40;;;;;;;-5.57;100.00;146043.50;5020007;28;20025;-66
2022/12/15 07:32:14;;;;;;;42.50;19.23;;;;;;;-5.53;100.00;146053.72;5020045;28;20109;-66
2022/12/15 07:34:40;;;;;;;45.47;19.67;;;;;;;-5.42;100.00;146081.81;5018947;28;20018;-67
2022/12/15 07:37:06;;;;;;;42.03;19.03;;;;;;;-5.43;100.00;146080.53;5031931;28;20072;-66
2022/12/15 07:39:32;;;;;;;45.50;18.50;;;;;;;-5.49;100.00;146065.19;5028723;28;20104;-66
2022/12/15 07:41:57;;;;;;;39.67;18.77;;;;;;;-5.54;100.00;146051.19;5016845;28;20014;-65
2022/12/15 07:44:22;;;;;;;40.67;19.00;;;;;;;-5.62;100.00;146032.03;5031360;28;20033;-66
2022/12/15 07:46:48;;;;;;;41.97;18.97;;;;;;;-5.53;100.00;146055.00;5021355;28;20026;-66
2022/12/15 07:49:15;;;;;;;36.83;17.07;;;;;;;-5.46;100.00;146072.84;5023531;28;20360;-65
2022/12/15 07:51:41;;;;;;;41.63;17.63;;;;;;;-5.37;100.00;146095.81;5027577;28;20515;-65
2022/12/15 07:54:10;;;;;;;43.60;18.13;;;;;;;-5.41;100.00;146085.63;5031522;28;20256;-66
2022/12/15 07:56:36;;;;;;;37.10;18.10;;;;;;;-5.42;100.00;146083.09;5013610;28;20049;-66
2022/12/15 07:59:02;;;;;;;35.20;17.20;;;;;;;-5.34;100.00;146103.47;5031462;28;20795;-66
2022/12/15 08:01:27;;;;;;;43.43;18.20;;;;;;;-5.32;100.00;146108.63;5031161;28;20348;-65
2022/12/15 08:03:53;;;;;;;34.13;17.00;;;;;;;-5.27;100.00;146118.81;5022295;28;20033;-66
2022/12/15 08:06:18;;;;;;;36.93;18.30;;;;;;;-5.21;100.00;146134.09;5022218;28;20392;-66
2022/12/15 08:08:44;;;;;;;39.10;19.17;;;;;;;-5.12;100.00;146157.09;5026822;28;20068;-66
2022/12/15 08:11:13;;;;;;;39.27;18.27;;;;;;;-5.09;100.00;146164.75;5029608;28;20022;-66
2022/12/15 08:13:40;;;;;;;40.40;17.37;;;;;;;-5.06;100.00;146172.44;5020226;28;20265;-66
2022/12/15 08:16:05;;;;;;;34.93;17.77;;;;;;;-4.92;100.00;146206.91;5017367;28;20887;-66
2022/12/15 08:18:31;;;;;;;37.77;17.30;;;;;;;-4.78;100.00;146243.94;5017423;28;20252;-66
2022/12/15 08:21:05;;;;;;;33.33;17.07;;;;;;;-4.34;100.00;146352.53;5030277;28;20100;-66
2022/12/15 08:23:31;;;;;;;32.60;16.30;;;;;;;-4.00;100.00;146438.09;5019511;28;20018;-66
2022/12/15 08:26:10;;;;;;;28.73;15.13;;;;;;;-3.86;100.00;146473.94;5016547;28;20343;-66
2022/12/15 08:28:37;;;;;;;27.77;13.93;;;;;;;-3.76;100.00;146499.44;5024073;28;20422;-66
2022/12/15 08:31:04;;;;;;;36.43;16.27;;;;;;;-3.61;100.00;146537.84;5030541;28;20333;-66
2022/12/15 08:33:31;;;;;;;46.80;21.17;;;;;;;-3.34;100.00;146604.31;5022161;28;20275;-66
2022/12/15 08:36:05;;;;;;;46.77;20.53;;;;;;;-3.19;100.00;146642.69;5011834;28;20382;-66
2022/12/15 08:38:31;;;;;;;41.67;19.17;;;;;;;-2.81;100.00;146737.34;5022579;28;20128;-66
2022/12/15 08:40:57;;;;;;;36.83;16.90;;;;;;;-2.70;100.00;146766.75;5027339;28;20021;-66
2022/12/15 08:43:22;;;;;;;33.80;16.53;;;;;;;-2.61;100.00;146788.53;5028970;28;20071;-66
2022/12/15 08:45:48;;;;;;;35.10;16.57;;;;;;;-2.45;100.00;146829.47;5022491;28;20505;-66
2022/12/15 08:48:13;;;;;;;33.37;15.13;;;;;;;-2.58;100.00;146796.19;5015871;28;20120;-67
2022/12/15 08:50:44;;;;;;;41.07;17.27;;;;;;;-2.79;100.00;146742.44;5029129;28;20442;-66
2022/12/15 08:53:10;;;;;;;38.70;16.87;;;;;;;-2.68;100.00;146770.59;5030061;28;20025;-66
2022/12/15 08:55:35;;;;;;;37.00;17.00;;;;;;;-2.90;100.00;146714.34;5023819;28;20076;-66
2022/12/15 08:58:00;;;;;;;32.67;15.50;;;;;;;-3.23;100.00;146632.47;5020246;28;20017;-66
2022/12/15 09:00:26;;;;;;;30.63;14.80;;;;;;;-3.34;100.00;146604.31;5025305;28;20024;-66
2022/12/15 09:02:51;;;;;;;31.93;15.10;;;;;;;-3.33;100.00;146608.16;5030182;28;20025;-65
2022/12/15 09:05:16;;;;;;;27.87;14.17;;;;;;;-3.36;100.00;146599.22;5029625;28;20117;-65
2022/12/15 09:07:42;;;;;;;31.50;14.30;;;;;;;-3.36;100.00;146599.22;5020739;28;20083;-65
2022/12/15 09:10:07;;;;;;;26.00;14.47;;;;;;;-3.34;100.00;146604.31;5015489;28;20018;-65
2022/12/15 09:12:33;;;;;;;31.70;14.30;;;;;;;-3.32;100.00;146609.44;5020044;28;20105;-65
2022/12/15 09:14:58;;;;;;;33.47;16.70;;;;;;;-3.27;100.00;146623.53;5020981;28;20108;-65
2022/12/15 09:17:23;;;;;;;42.00;18.10;;;;;;;-3.26;100.00;146624.81;5026743;28;20084;-65
2022/12/15 09:19:49;;;;;;;45.93;20.93;;;;;;;-3.16;100.00;146650.34;5028411;28;20021;-65
2022/12/15 09:22:14;;;;;;;44.37;21.63;;;;;;;-3.08;100.00;146670.81;5013572;28;20611;-65
2022/12/15 09:24:39;;;;;;;35.23;17.77;;;;;;;-3.05;100.00;146677.22;5027564;28;20394;-65
2022/12/15 09:27:05;;;;;;;35.40;16.23;;;;;;;-3.01;100.00;146688.75;5014470;28;20061;-65
2022/12/15 09:29:31;;;;;;;23.37;12.37;;;;;;;-2.96;100.00;146700.25;5018886;28;20416;-65
2022/12/15 09:31:56;;;;;;;31.47;15.47;;;;;;;-2.87;100.00;146723.28;5022446;28;20033;-65
2022/12/15 09:34:22;;;;;;;30.33;15.27;;;;;;;-2.79;100.00;146742.44;5026802;28;20022;-65
2022/12/15 09:36:47;;;;;;;26.83;14.73;;;;;;;-2.73;100.00;146757.81;5029284;28;20037;-65
2022/12/15 09:39:14;;;;;;;31.43;14.37;;;;;;;-2.70;100.00;146765.50;5028020;28;20097;-65
2022/12/15 09:41:41;;;;;;;31.80;15.67;;;;;;;-2.63;100.00;146783.44;5022865;28;20032;-65
2022/12/15 09:44:13;;;;;;;34.60;15.40;;;;;;;-2.56;100.00;146801.31;5029612;28;20267;-65
2022/12/15 09:46:58;;;;;;;27.95;14.55;;;;;;;-2.48;100.00;146821.81;5028875;28;20287;-65
2022/12/15 09:49:38;;;;;;;35.70;16.47;;;;;;;-2.37;100.00;146849.97;5026031;28;20056;-64
2022/12/15 09:52:10;;;;;;;34.17;16.80;;;;;;;-2.28;100.00;146870.47;5028643;28;20745;-65
2022/12/15 09:54:35;;;;;;;36.50;18.03;;;;;;;-2.25;100.00;146878.13;5029400;28;20295;-66
2022/12/15 09:57:21;;;;;;;39.03;19.87;;;;;;;-2.16;100.00;146901.19;5029335;28;20676;-66
2022/12/15 10:00:26;;;;;;;62.17;27.00;;;;;;;-2.10;100.00;146916.53;5022587;28;20822;-66
2022/12/15 10:03:03;;;;;;;54.13;23.73;;;;;;;-2.05;100.00;146929.38;5006771;28;20276;-66
2022/12/15 10:05:46;;;;;;;49.43;22.03;;;;;;;-1.99;100.00;146944.72;5025938;28;20256;-66
2022/12/15 10:08:13;;;;;;;44.83;20.97;;;;;;;-1.94;100.00;146957.53;5019282;28;20334;-66
2022/12/15 10:10:52;;;;;;;44.97;20.90;;;;;;;-1.92;100.00;146962.66;5018827;28;20026;-66
2022/12/15 10:13:39;;;;;;;46.47;22.17;;;;;;;-1.84;100.00;146983.13;5022197;28;20279;-66
2022/12/15 10:16:17;;;;;;;43.27;20.93;;;;;;;-1.78;100.00;146998.50;5029606;28;20256;-66
2022/12/15 10:19:15;;;;;;;46.10;21.70;;;;;;;-1.74;100.00;147007.47;5029304;28;20640;-66
2022/12/15 10:21:41;;;;;;;47.87;21.20;;;;;;;-1.65;100.00;147030.53;5013950;28;20772;-66
2022/12/15 10:24:19;;;;;;;41.23;21.03;;;;;;;-1.58;100.00;147047.16;5027613;28;20260;-66
2022/12/15 10:27:00;;;;;;;38.50;20.07;;;;;;;-1.55;100.00;147054.88;5016552;28;20027;-67
2022/12/15 10:29:48;;;;;;;42.17;20.48;;;;;;;-1.51;100.00;147065.09;5029043;28;20325;-67
2022/12/15 10:32:14;;;;;;;39.90;18.73;;;;;;;-1.45;100.00;147080.50;5028613;28;20041;-65
2022/12/15 10:34:40;;;;;;;40.77;19.10;;;;;;;-1.39;100.00;147094.56;5029100;28;20449;-65
2022/12/15 10:37:05;;;;;;;35.23;17.60;;;;;;;-1.39;100.00;147095.84;5026789;28;20021;-65
2022/12/15 10:39:39;;;;;;;33.53;16.90;;;;;;;-1.29;100.00;147121.50;5019793;28;20080;-65
2022/12/15 10:42:23;;;;;;;29.10;15.40;;;;;;;-1.28;100.00;147124.06;5026197;28;20025;-66
2022/12/15 10:44:56;;;;;;;32.60;17.03;;;;;;;-1.20;100.00;147143.28;5019562;28;20073;-66
2022/12/15 10:47:25;;;;;;;36.23;17.37;;;;;;;-1.18;100.00;147148.41;5011813;28;20687;-67
2022/12/15 10:49:52;;;;;;;35.30;16.50;;;;;;;-1.08;100.00;147172.78;5025307;28;20033;-67
2022/12/15 10:52:34;;;;;;;31.77;15.60;;;;;;;-1.01;100.00;147190.69;5014361;28;20775;-66
2022/12/15 10:54:59;;;;;;;;;;;;;;;-0.98;100.00;147198.38;5019630;28;20029;-66
2022/12/15 10:57:30;;;;;;;30.17;16.13;;;;;;;-0.92;100.00;147213.78;5028318;28;19913;-65
2022/12/15 11:00:14;;;;;;;40.20;16.23;;;;;;;-0.85;100.00;147231.69;5031370;28;20072;-65
2022/12/15 11:02:40;;;;;;;39.83;18.60;;;;;;;-0.80;100.00;147243.25;5031880;28;20288;-65
2022/12/15 11:05:15;;;;;;;45.50;18.97;;;;;;;-0.76;100.00;147254.78;5028013;28;20049;-65
2022/12/15 11:07:47;;;;;;;30.30;15.70;;;;;;;-0.77;100.00;147250.94;5031931;28;20034;-65
2022/12/15 11:10:21;;;;;;;40.47;18.73;;;;;;;-0.67;100.00;147277.88;5020260;28;20064;-65
2022/12/15 11:13:12;;;;;;;30.37;14.57;;;;;;;-0.66;100.00;147280.44;5029018;28;20049;-65
2022/12/15 11:15:39;;;;;;;22.30;10.47;;;;;;;-0.63;100.00;147288.09;5022762;28;20025;-65
2022/12/15 11:18:58;;;;;;;22.40;11.50;;;;;;;-0.57;100.00;147300.97;5028819;28;20064;-65
2022/12/15 11:21:29;;;;;;;26.50;15.10;;;;;;;-0.50;100.00;147320.16;4968075;28;20462;-65
2022/12/15 11:24:02;;;;;;;25.93;15.23;;;;;;;-0.42;100.00;147340.69;5006300;28;20034;-64
2022/12/15 11:26:34;;;;;;;26.90;14.43;;;;;;;-0.45;100.00;147331.72;5029762;28;20087;-64
2022/12/15 11:29:14;;;;;;;;;;;;;;;-0.39;100.00;147347.09;5019142;28;20053;-65
2022/12/15 11:31:42;;;;;;;25.73;14.37;;;;;;;-0.27;100.00;147377.88;5027177;28;20369;-65
2022/12/15 11:34:17;;;;;;;27.03;14.97;;;;;;;-0.22;100.00;147389.44;5030574;28;20081;-66
2022/12/15 11:37:08;;;;;;;30.50;14.80;;;;;;;-0.15;100.00;147408.66;5026150;28;20084;-66
2022/12/15 11:39:58;;;;;;;28.80;14.80;;;;;;;-0.17;100.00;147403.53;5031153;28;20033;-65
2022/12/15 11:42:43;;;;;;;23.63;13.27;;;;;;;-0.06;100.00;147431.75;5013333;28;20496;-64
2022/12/15 11:45:32;;;;;;;28.27;14.63;;;;;;;-0.01;100.00;147444.56;5022715;28;20043;-64
2022/12/15 11:48:11;;;;;;;25.57;13.43;;;;;;;0.15;100.00;147483.09;5027268;28;20167;-64
2022/12/15 11:50:44;;;;;;;29.10;13.77;;;;;;;0.41;100.00;147549.81;5024400;28;20046;-64
2022/12/15 11:53:30;;;;;;;25.87;13.77;;;;;;;0.62;100.00;147602.47;5031131;28;20550;-64
2022/12/15 11:56:23;;;;;;;26.03;12.80;;;;;;;0.66;100.00;147611.44;4990805;28;20040;-65
2022/12/15 11:59:25;;;;;;;23.50;12.43;;;;;;;0.50;100.00;147572.94;5017157;28;20415;-64
2022/12/15 12:02:21;;;;;;;25.90;14.60;;;;;;;0.51;100.00;147575.50;5026641;28;20744;-64
2022/12/15 12:05:08;;;;;;;27.37;13.90;;;;;;;0.42;100.00;147552.38;5022053;28;20044;-64
2022/12/15 12:07:55;;;;;;;25.70;14.30;;;;;;;0.46;100.00;147561.38;5023675;28;20033;-64
2022/12/15 12:10:50;;;;;;;26.27;13.70;;;;;;;0.42;100.00;147551.09;5022460;28;20442;-65
2022/12/15 12:13:35;;;;;;;26.73;14.60;;;;;;;0.25;100.00;147508.78;5028198;28;20664;-64
2022/12/15 12:16:21;;;;;;;25.90;13.63;;;;;;;0.25;100.00;147508.78;5014198;28;20018;-64
2022/12/15 12:19:03;;;;;;;33.93;17.30;;;;;;;0.42;100.00;147552.38;5021367;28;20025;-64
2022/12/15 12:21:37;;;;;;;35.67;16.07;;;;;;;0.56;100.00;147587.03;5020338;28;20535;-64
2022/12/15 12:24:27;;;;;;;28.37;15.80;;;;;;;0.58;100.00;147592.16;5022081;28;20037;-64
2022/12/15 12:27:22;;;;;;;27.97;14.43;;;;;;;0.61;100.00;147598.56;5021975;28;20017;-64
2022/12/15 12:29:54;;;;;;;29.27;15.93;;;;;;;0.58;100.00;147593.44;5017184;28;20025;-64
2022/12/15 12:32:39;;;;;;;28.20;16.00;;;;;;;0.57;100.00;147590.88;5017234;28;20024;-64
2022/12/15 12:35:07;;;;;;;29.47;14.17;;;;;;;0.57;100.00;147590.88;5030844;28;20489;-64
2022/12/15 12:37:39;;;;;;;29.57;16.33;;;;;;;0.64;100.00;147606.31;5026041;28;20428;-64
2022/12/15 12:40:18;;;;;;;37.47;16.52;;;;;;;0.67;100.00;147614.00;5027730;28;20032;-64
2022/12/15 12:42:52;;;;;;;31.57;16.07;;;;;;;0.68;100.00;147617.84;5027339;28;20257;-64
2022/12/15 12:45:18;;;;;;;26.77;14.03;;;;;;;0.71;100.00;147624.25;5029168;28;20115;-64
2022/12/15 12:47:49;;;;;;;28.10;14.67;;;;;;;0.69;100.00;147620.41;5011998;28;20117;-64
2022/12/15 12:50:23;;;;;;;23.73;14.03;;;;;;;0.70;100.00;147621.69;5011903;28;20385;-64
2022/12/15 12:52:55;;;;;;;26.80;15.27;;;;;;;0.70;100.00;147622.97;5011991;28;20018;-64
2022/12/15 12:55:24;;;;;;;;;;;;;;;0.69;100.00;147620.41;5016977;28;20032;-64
2022/12/15 12:57:51;;;;;;;22.83;13.10;;;;;;;0.76;100.00;147637.13;5019843;28;20011;-64
2022/12/15 13:00:22;;;;;;;24.97;12.10;;;;;;;0.71;100.00;147624.25;5029964;28;20036;-64
2022/12/15 13:03:15;;;;;;;31.13;16.67;;;;;;;0.69;100.00;147619.13;5028718;28;20113;-65
2022/12/15 13:05:41;;;;;;;36.37;17.57;;;;;;;0.73;100.00;147629.44;5013496;28;20105;-65
2022/12/15 13:08:15;;;;;;;36.13;17.43;;;;;;;0.77;100.00;147639.69;5029814;28;20169;-65
2022/12/15 13:10:47;;;;;;;27.07;15.43;;;;;;;0.72;100.00;147626.81;5028924;28;20100;-65
2022/12/15 13:13:15;;;;;;;27.42;15.43;;;;;;;0.83;100.00;147655.06;5021091;28;20030;-65
2022/12/15 13:15:47;;;;;;;28.57;15.53;;;;;;;0.81;100.00;147649.94;5018192;28;20026;-65
2022/12/15 13:18:23;;;;;;;35.93;17.83;;;;;;;0.79;100.00;147644.81;5026799;28;20021;-65
2022/12/15 13:21:13;;;;;;;31.17;15.97;;;;;;;0.79;100.00;147646.09;5023021;28;20116;-65
2022/12/15 13:23:41;;;;;;;35.53;18.77;;;;;;;0.79;100.00;147644.81;5011678;28;20581;-65
2022/12/15 13:26:07;;;;;;;31.60;16.23;;;;;;;0.78;100.00;147642.25;5016477;28;20374;-65
2022/12/15 13:28:35;;;;;;;25.30;14.90;;;;;;;0.74;100.00;147632.00;5029406;28;20029;-65
2022/12/15 13:31:16;;;;;;;29.67;15.90;;;;;;;0.72;100.00;147626.81;5029031;28;20080;-65
2022/12/15 13:33:51;;;;;;;32.42;16.10;;;;;;;0.73;100.00;147630.72;5013484;28;20032;-65
2022/12/15 13:36:35;;;;;;;30.77;16.63;;;;;;;0.79;100.00;147644.81;5011393;28;20595;-65
2022/12/15 13:39:21;;;;;;;31.47;16.73;;;;;;;0.76;100.00;147638.41;5027570;28;20053;-65
2022/12/15 13:41:46;;;;;;;31.70;16.17;;;;;;;0.72;100.00;147628.09;5030386;28;20037;-65
2022/12/15 13:44:30;;;;;;;28.17;15.60;;;;;;;0.68;100.00;147617.84;5012351;28;20037;-66